Time;durP1;ratioP1;P1;durP2;ratioP2;P2;SDS_P1;SDS_P2;PMS_P1;PMS_P2;Temp;Humidity;BMP_temperature;BMP_pressure;BME280_temperature;BME280_humidity;BME280_pressure;Samples;Min_cycle;Max_cycle;Signal;HPM_P1;HPM_P2
2022/08/14 06:37:55;;;;;;;7.88;3.13;;;;;;;19.61;49.76;95975.03;2084511;28;20555;-69
2022/08/14 06:38:57;;;;;;;4.57;2.50;;;;;;;19.63;49.88;95969.56;2079534;28;20198;-69
2022/08/14 06:39:59;;;;;;;9.60;3.45;;;;;;;19.30;50.58;95966.38;2081500;28;20219;-69
2022/08/14 06:41:01;;;;;;;5.70;3.33;;;;;;;19.38;50.56;95964.72;2077736;28;20279;-68
2022/08/14 06:42:03;;;;;;;8.57;3.22;;;;;;;19.73;49.62;95962.44;2073114;28;20195;-69
2022/08/14 06:43:08;;;;;;;7.20;2.95;;;;;;;19.93;49.08;95957.97;2074881;28;20307;-69
2022/08/14 06:44:09;;;;;;;5.65;2.90;;;;;;;20.16;48.88;95963.78;2072688;28;20197;-69
2022/08/14 06:45:13;;;;;;;4.53;2.75;;;;;;;20.36;48.30;95963.72;2074237;28;20197;-69
2022/08/14 06:46:16;;;;;;;4.68;2.63;;;;;;;20.45;47.94;95962.81;2073644;28;20712;-70
2022/08/14 07:08:28;;;;;;;2.92;1.40;;;;;;;22.15;41.45;95922.22;2084390;28;20935;-69
2022/08/14 07:09:32;;;;;;;5.35;1.40;;;;;;;22.14;42.29;95931.22;2085437;28;20640;-69
2022/08/14 07:10:48;;;;;;;3.85;1.88;;;;;;;22.11;41.84;95938.66;2080022;28;20201;-70
2022/08/14 07:11:52;;;;;;;4.20;1.70;;;;;;;22.22;41.28;95930.41;2081906;28;20896;-70
2022/08/14 07:12:53;;;;;;;3.58;1.85;;;;;;;22.29;41.20;95930.59;2082683;28;20193;-68
2022/08/14 07:14:04;;;;;;;4.03;1.88;;;;;;;22.27;40.92;95932.59;2080357;28;20208;-68
2022/08/14 07:15:10;;;;;;;4.35;2.00;;;;;;;22.21;41.21;95941.19;2067077;28;20201;-67
2022/08/14 07:16:12;;;;;;;6.90;1.50;;;;;;;22.27;41.27;95940.56;2067284;28;20244;-67
2022/08/14 07:17:14;;;;;;;3.38;2.00;;;;;;;22.50;41.15;95944.38;2077553;28;20201;-68
2022/08/14 07:18:24;;;;;;;3.35;1.70;;;;;;;22.49;40.79;95941.88;2080787;28;20193;-68
2022/08/14 07:37:25;;;;;;;2.80;1.55;;;;;;;24.57;37.56;95961.25;2086270;28;20556;-68
2022/08/14 07:38:27;;;;;;;4.28;1.45;;;;;;;24.21;38.23;95952.88;2082520;28;20197;-67
2022/08/14 07:39:36;;;;;;;8.70;5.47;;;;;;;24.67;37.25;95949.56;2079943;28;20522;-66
2022/08/14 07:40:39;;;;;;;3.20;2.20;;;;;;;24.69;37.26;95952.91;2078638;28;20224;-65
2022/08/14 07:41:45;;;;;;;3.95;1.60;;;;;;;24.75;37.16;95949.56;2074405;28;20574;-66
2022/08/14 07:42:49;;;;;;;3.33;1.88;;;;;;;25.05;36.69;95949.72;2074317;28;20208;-66
2022/08/14 07:43:51;;;;;;;6.28;2.03;;;;;;;25.02;36.29;95950.06;2073592;28;20190;-68
2022/08/14 07:44:56;;;;;;;4.57;1.65;;;;;;;25.24;36.73;95951.94;2073150;28;20224;-67
2022/08/14 07:45:57;;;;;;;2.67;1.58;;;;;;;25.04;36.36;95942.69;2074715;28;20221;-68
2022/08/14 07:47:00;;;;;;;2.13;1.33;;;;;;;25.32;36.58;95948.38;2071336;28;20704;-67
2022/08/14 07:48:01;;;;;;;4.95;2.10;;;;;;;25.63;35.91;95942.16;2073340;28;20202;-67
2022/08/14 08:05:49;;;;;;;4.65;1.55;;;;;;;25.42;35.78;95932.16;2091276;28;20563;-68
2022/08/14 08:06:53;;;;;;;11.95;1.60;;;;;;;24.92;35.96;95943.13;2084719;28;20587;-69
2022/08/14 08:07:55;;;;;;;4.93;1.98;;;;;;;24.95;36.29;95944.63;2084406;28;20189;-69
2022/08/14 08:08:59;;;;;;;4.07;1.70;;;;;;;24.83;35.98;95932.66;2084560;28;20223;-69
2022/08/14 08:11:51;;;;;;;5.47;2.22;;;;;;;25.24;36.27;95948.41;2081578;28;20250;-69
2022/08/14 08:13:03;;;;;;;6.30;1.67;;;;;;;25.34;35.90;95945.53;2083613;28;20204;-68
2022/08/14 08:14:06;;;;;;;5.15;1.45;;;;;;;25.37;35.61;95943.38;2083133;28;20207;-69
2022/08/14 08:15:18;;;;;;;4.10;1.65;;;;;;;25.18;36.06;95954.47;2082776;28;20224;-69
2022/08/14 08:16:22;;;;;;;6.10;2.10;;;;;;;25.68;35.83;95950.47;2082052;28;20229;-69
2022/08/14 08:17:25;;;;;;;3.22;1.60;;;;;;;26.20;34.85;95953.34;2082419;28;20624;-69
2022/08/14 08:18:34;;;;;;;6.30;2.40;;;;;;;26.29;34.71;95954.91;2083046;28;20655;-69
2022/08/14 08:19:37;;;;;;;3.65;1.88;;;;;;;25.91;35.00;95947.75;2085557;28;20211;-68
2022/08/14 08:37:37;;;;;;;2.70;1.60;;;;;;;25.85;34.53;95956.50;2092790;27;20551;-68
2022/08/14 08:38:40;;;;;;;3.50;1.55;;;;;;;26.04;33.96;95954.31;2089107;28;20197;-69
2022/08/14 08:40:02;;;;;;;4.75;1.80;;;;;;;26.40;33.87;95949.09;2092151;28;20203;-69
2022/08/14 08:41:06;;;;;;;4.63;1.83;;;;;;;26.07;33.47;95949.47;2079377;28;20204;-68
2022/08/14 08:42:11;;;;;;;5.05;1.77;;;;;;;25.74;34.22;95943.56;2067938;28;20696;-67
2022/08/14 08:43:34;;;;;;;11.75;8.18;;;;;;;26.03;34.16;95933.91;2073443;28;20664;-68
2022/08/14 08:44:35;;;;;;;3.47;1.73;;;;;;;26.08;33.76;95928.91;2074314;28;20847;-68
2022/08/14 08:45:38;;;;;;;4.53;2.05;;;;;;;26.64;33.24;95936.47;2074486;28;20232;-68
2022/08/14 08:46:42;;;;;;;6.40;2.35;;;;;;;26.75;32.85;95937.84;2075275;28;20224;-67
2022/08/14 08:47:44;;;;;;;8.40;1.55;;;;;;;26.87;32.89;95940.88;2074772;28;20555;-67
2022/08/14 08:48:49;;;;;;;11.85;1.50;;;;;;;26.25;33.24;95937.56;2073712;28;20276;-68
2022/08/14 08:49:53;;;;;;;6.55;1.77;;;;;;;26.05;33.75;95930.06;2075314;28;20205;-68
2022/08/14 08:51:02;;;;;;;8.05;1.70;;;;;;;26.47;33.25;95933.13;2071228;28;20200;-68
2022/08/14 08:52:05;;;;;;;4.97;2.00;;;;;;;26.49;33.40;95933.78;2073376;28;20252;-68
2022/08/14 08:53:16;;;;;;;3.15;1.50;;;;;;;26.29;33.51;95935.38;2073751;28;20532;-68
2022/08/14 09:10:26;;;;;;;3.33;1.95;;;;;;;26.31;32.64;95917.28;2085567;28;20552;-66
2022/08/14 09:11:30;;;;;;;4.65;2.05;;;;;;;26.44;32.44;95927.34;2078471;28;20229;-66
2022/08/14 09:12:33;;;;;;;3.72;2.15;;;;;;;26.48;32.71;95918.75;2075134;28;20198;-66
2022/08/14 09:13:35;;;;;;;3.22;1.48;;;;;;;26.32;32.27;95916.25;2073651;28;20208;-66
2022/08/14 09:14:37;;;;;;;7.90;1.60;;;;;;;26.37;32.62;95916.53;2075408;28;20193;-66
2022/08/14 09:15:44;;;;;;;3.47;1.85;;;;;;;26.38;32.73;95928.91;2074197;28;20250;-66
2022/08/14 09:16:46;;;;;;;3.17;1.75;;;;;;;26.26;32.85;95920.53;2074314;28;20229;-66
2022/08/14 09:17:51;;;;;;;8.60;1.77;;;;;;;26.51;32.68;95921.06;2073236;28;20209;-66
2022/08/14 09:18:55;;;;;;;3.65;1.58;;;;;;;26.94;32.38;95930.25;2075391;28;20200;-67
2022/08/14 09:19:58;;;;;;;3.63;1.83;;;;;;;27.19;31.79;95930.72;2075864;28;20796;-67
2022/08/14 09:21:03;;;;;;;2.72;1.50;;;;;;;26.87;31.89;95928.31;2067999;28;20201;-66
2022/08/14 09:22:09;;;;;;;2.95;1.73;;;;;;;26.67;32.49;95927.22;2072989;28;20704;-66
2022/08/14 09:23:32;;;;;;;4.63;2.20;;;;;;;27.36;31.56;95923.25;2070547;28;20229;-66
2022/08/14 09:24:54;;;;;;;2.83;1.65;;;;;;;27.31;31.88;95923.84;2076400;28;20204;-66
2022/08/14 09:25:55;;;;;;;3.45;1.70;;;;;;;27.68;30.99;95926.44;2075771;28;20193;-67
2022/08/14 09:27:02;;;;;;;5.68;2.25;;;;;;;27.85;30.59;95927.81;2073990;28;20293;-66
2022/08/14 09:28:08;;;;;;;11.25;2.20;;;;;;;27.48;31.41;95937.84;2073729;28;20227;-66
2022/08/14 09:29:10;;;;;;;2.40;1.65;;;;;;;27.06;31.36;95939.44;2075393;28;20197;-66
2022/08/14 09:30:12;;;;;;;2.58;1.70;;;;;;;27.29;31.23;95923.19;2074822;28;20272;-66
2022/08/14 09:48:30;;;;;;;5.75;2.10;;;;;;;27.18;30.84;95907.63;2090818;28;20556;-67
2022/08/14 09:49:35;;;;;;;2.55;1.70;;;;;;;27.45;30.80;95910.56;2092429;28;21071;-68
2022/08/14 09:50:52;;;;;;;6.80;1.63;;;;;;;27.73;30.48;95888.31;2092631;28;20322;-68
2022/08/14 09:52:02;;;;;;;2.13;1.50;;;;;;;27.19;31.12;95901.25;2083075;28;20562;-67
2022/08/14 09:53:58;;;;;;;11.95;1.60;;;;;;;26.87;30.91;95909.56;2083264;28;20636;-67
2022/08/14 09:55:21;;;;;;;10.43;2.30;;;;;;;27.24;29.93;95887.28;2083761;28;20851;-69
2022/08/14 09:56:22;;;;;;;2.22;1.50;;;;;;;27.31;30.50;95889.00;2083420;28;20248;-69
2022/08/14 09:57:32;;;;;;;4.30;1.75;;;;;;;27.33;30.32;95892.31;2084580;28;20192;-67
2022/08/14 09:58:40;;;;;;;10.60;1.90;;;;;;;26.55;30.95;95903.59;2085621;28;20212;-68
2022/08/14 09:59:45;;;;;;;5.25;1.80;;;;;;;26.56;30.92;95893.72;2082877;28;20647;-68
2022/08/14 10:00:58;;;;;;;2.45;1.50;;;;;;;27.19;30.37;95901.25;2081822;28;20288;-68
2022/08/14 10:01:59;;;;;;;4.88;1.65;;;;;;;27.35;29.99;95894.78;2082067;28;20232;-68
2022/08/14 10:03:02;;;;;;;3.05;1.60;;;;;;;26.95;30.61;95889.88;2081977;28;20201;-68
2022/08/14 10:04:27;;;;;;;3.97;1.60;;;;;;;27.12;30.37;95890.47;2083444;28;20645;-67
2022/08/14 10:05:38;;;;;;;1.98;1.30;;;;;;;27.26;30.54;95885.22;2082022;28;20213;-68
2022/08/14 10:06:45;;;;;;;5.95;2.10;;;;;;;27.78;29.85;95881.38;2083696;28;20255;-68
2022/08/14 10:07:49;;;;;;;5.13;1.67;;;;;;;27.96;29.86;95886.25;2081161;28;20769;-68
2022/08/14 10:09:01;;;;;;;3.40;1.73;;;;;;;27.85;29.36;95866.13;2083982;28;20582;-68
2022/08/14 10:10:04;;;;;;;2.28;1.60;;;;;;;28.12;29.51;95866.31;2083282;28;20313;-68
2022/08/14 10:28:02;;;;;;;3.33;1.70;;;;;;;28.60;29.28;95868.22;2083812;28;20563;-65
2022/08/14 10:29:10;;;;;;;2.60;1.70;;;;;;;28.75;29.05;95859.22;2079362;28;20668;-66
2022/08/14 10:30:35;;;;;;;2.65;1.80;;;;;;;28.76;29.02;95855.47;2077650;28;20295;-64
2022/08/14 10:31:37;;;;;;;7.07;2.47;;;;;;;28.37;28.89;95846.22;2074060;28;20217;-66
2022/08/14 10:32:47;;;;;;;6.32;1.77;;;;;;;29.04;28.32;95841.91;2068799;28;20546;-66
2022/08/14 10:34:10;;;;;;;6.75;2.25;;;;;;;29.37;27.93;95832.25;2070973;28;20201;-65
2022/08/14 10:35:15;;;;;;;8.85;2.03;;;;;;;30.00;28.00;95850.63;2078395;28;20201;-65
2022/08/14 10:36:26;;;;;;;5.90;2.05;;;;;;;28.65;29.25;95841.56;2076529;28;20209;-66
2022/08/14 10:37:39;;;;;;;2.75;1.70;;;;;;;27.84;30.18;95840.34;2069885;28;20740;-66
2022/08/14 10:38:56;;;;;;;2.70;1.65;;;;;;;28.13;29.42;95835.78;2070436;28;20197;-65
2022/08/14 10:40:00;;;;;;;2.20;1.40;;;;;;;27.66;30.07;95843.53;2070864;28;20190;-63
2022/08/14 10:41:12;;;;;;;3.47;1.50;;;;;;;27.85;29.45;95846.53;2070422;28;20202;-67
2022/08/14 10:42:14;;;;;;;4.53;1.98;;;;;;;28.58;28.72;95818.41;2068885;28;20190;-65
2022/08/14 10:43:26;;;;;;;2.85;1.70;;;;;;;29.14;28.26;95826.22;2070998;28;20289;-66
2022/08/14 10:44:40;;;;;;;3.22;1.90;;;;;;;28.82;28.86;95827.81;2070376;28;20236;-63
2022/08/14 10:46:00;;;;;;;7.35;1.77;;;;;;;28.78;28.94;95827.38;2071003;28;20208;-65
2022/08/14 10:47:33;;;;;;;2.20;1.58;;;;;;;29.06;29.26;95839.84;2070417;28;20656;-65
2022/08/14 10:49:01;;;;;;;9.07;2.78;;;;;;;28.69;29.27;95833.16;2070738;28;20213;-65
2022/08/14 10:50:06;;;;;;;4.63;2.15;;;;;;;28.25;29.76;95827.19;2069947;28;20200;-64
2022/08/14 10:51:23;;;;;;;3.63;1.95;;;;;;;28.56;29.67;95826.69;2069071;28;20609;-64
2022/08/14 10:52:31;;;;;;;9.07;2.00;;;;;;;28.84;28.97;95829.25;2070629;28;20255;-65
2022/08/14 10:53:36;;;;;;;3.05;1.83;;;;;;;29.69;28.54;95822.50;2070213;28;20233;-66
2022/08/14 10:54:44;;;;;;;2.80;1.65;;;;;;;30.58;27.49;95822.09;2070433;28;20247;-66
2022/08/14 10:55:47;;;;;;;2.80;1.70;;;;;;;30.84;26.84;95814.88;2069811;28;20202;-65
2022/08/14 10:56:50;;;;;;;2.80;1.80;;;;;;;29.84;27.38;95814.22;2070245;28;20236;-65
2022/08/14 10:57:56;;;;;;;19.45;2.55;;;;;;;30.70;27.16;95816.84;2071002;28;20198;-65
2022/08/14 10:59:06;;;;;;;3.35;2.20;;;;;;;30.17;27.21;95818.72;2070158;28;20225;-63
2022/08/14 11:00:20;;;;;;;2.47;1.70;;;;;;;29.07;27.47;95821.88;2070946;28;20271;-63
2022/08/14 11:01:39;;;;;;;2.00;1.40;;;;;;;28.07;29.42;95825.03;2070460;28;20305;-63
2022/08/14 11:02:42;;;;;;;4.57;1.92;;;;;;;28.59;29.72;95820.91;2070531;28;20536;-64
2022/08/14 11:03:55;;;;;;;4.63;1.80;;;;;;;29.22;28.78;95816.31;2069922;28;20205;-63
2022/08/14 11:05:07;;;;;;;3.20;2.05;;;;;;;30.16;27.87;95822.44;2070795;28;20216;-65
2022/08/14 11:06:15;;;;;;;3.45;1.88;;;;;;;30.59;27.65;95821.88;2069366;28;20745;-66
2022/08/14 11:07:16;;;;;;;2.40;1.75;;;;;;;30.97;27.11;95812.13;2070116;28;20213;-64
2022/08/14 11:08:32;;;;;;;7.30;1.92;;;;;;;31.03;26.88;95773.53;2070233;28;20201;-65
2022/08/14 11:09:34;;;;;;;5.20;3.57;;;;;;;31.19;26.58;95819.88;2070884;28;20198;-65
2022/08/14 11:28:58;;;;;;;6.15;1.77;;;;;;;30.19;27.52;95831.94;2091276;28;20561;-66
2022/08/14 11:30:05;;;;;;;4.50;1.85;;;;;;;30.96;26.94;95832.03;2087494;28;20702;-64
2022/08/14 11:31:30;;;;;;;4.00;1.90;;;;;;;30.22;27.02;95851.19;2083956;28;20227;-64
2022/08/14 11:32:41;;;;;;;2.88;1.80;;;;;;;30.85;26.90;95836.22;2077704;28;20629;-62
2022/08/14 11:33:47;;;;;;;7.25;1.88;;;;;;;31.13;26.02;95826.16;2079340;28;20251;-63
2022/08/14 11:34:51;;;;;;;5.47;2.13;;;;;;;30.84;26.24;95822.97;2078787;28;20201;-62
2022/08/14 11:35:52;;;;;;;4.15;1.80;;;;;;;31.63;25.78;95815.41;2079358;28;20216;-63
2022/08/14 11:37:10;;;;;;;4.63;1.60;;;;;;;30.33;27.08;95814.69;2070909;28;20226;-65
2022/08/14 11:38:49;;;;;;;2.47;1.73;;;;;;;30.92;25.76;95822.72;2066430;28;20947;-63
2022/08/14 11:39:54;;;;;;;2.70;1.45;;;;;;;30.43;25.75;95816.94;2067038;28;20220;-62
2022/08/14 11:40:59;;;;;;;4.13;2.13;;;;;;;31.27;25.47;95808.81;2067889;28;20201;-64
2022/08/14 11:42:03;;;;;;;3.20;1.87;;;;;;;31.17;25.85;95805.78;2067868;28;20510;-63
2022/08/14 11:43:25;;;;;;;2.83;1.70;;;;;;;30.79;25.81;95812.84;2070948;28;20443;-64
2022/08/14 11:44:30;;;;;;;6.20;1.90;;;;;;;29.70;27.87;95802.66;2070735;28;20554;-61
2022/08/14 11:45:48;;;;;;;3.13;1.93;;;;;;;30.17;26.96;95810.63;2069279;28;20428;-61
2022/08/14 11:46:52;;;;;;;3.67;1.83;;;;;;;30.03;27.58;95799.09;2068604;28;20470;-62
2022/08/14 11:47:55;;;;;;;5.03;1.80;;;;;;;29.93;26.98;95814.84;2069595;28;20205;-63
2022/08/14 11:49:26;;;;;;;3.73;1.87;;;;;;;30.57;26.73;95799.69;2070187;28;20431;-65
2022/08/14 11:50:36;;;;;;;3.95;1.50;;;;;;;31.05;26.13;95792.16;2070734;28;20428;-66
2022/08/14 11:51:38;;;;;;;3.42;2.05;;;;;;;31.50;25.45;95788.50;2069657;28;20233;-67
2022/08/14 11:52:56;;;;;;;7.10;2.17;;;;;;;30.88;26.39;95787.31;2069828;28;20280;-66
2022/08/14 11:54:05;;;;;;;3.77;1.80;;;;;;;31.52;26.14;95779.13;2070235;28;20838;-65
2022/08/14 11:55:11;;;;;;;3.60;1.80;;;;;;;32.11;25.61;95783.34;2069046;28;20434;-65
2022/08/14 11:56:13;;;;;;;3.10;1.80;;;;;;;33.29;24.53;95789.25;2070492;28;20431;-64
2022/08/14 11:57:18;;;;;;;5.10;2.00;;;;;;;33.64;23.64;95791.16;2069722;28;20420;-66
2022/08/14 11:58:29;;;;;;;3.90;2.10;;;;;;;32.22;25.19;95783.41;2068993;28;20440;-66
2022/08/14 11:59:32;;;;;;;5.03;2.40;;;;;;;32.80;24.58;95781.25;2067345;28;20439;-68
2022/08/14 12:00:49;;;;;;;2.83;1.70;;;;;;;33.78;23.40;95786.31;2067316;28;20430;-67
2022/08/14 12:01:53;;;;;;;2.77;1.70;;;;;;;33.72;23.74;95795.38;2068708;28;20482;-67
2022/08/14 12:02:57;;;;;;;2.77;1.73;;;;;;;32.53;23.63;95770.78;2071061;28;20805;-66
2022/08/14 12:04:12;;;;;;;5.43;1.83;;;;;;;31.86;24.03;95776.16;2070103;28;20907;-68
2022/08/14 12:05:41;;;;;;;3.77;1.70;;;;;;;31.57;23.92;95784.69;2070584;28;20973;-67
2022/08/14 12:06:48;;;;;;;2.23;1.70;;;;;;;30.76;25.24;95779.06;2070660;28;20458;-68
2022/08/14 12:07:52;;;;;;;2.03;1.50;;;;;;;31.43;24.38;95778.59;2070234;28;20436;-67
2022/08/14 12:08:55;;;;;;;1.90;1.50;;;;;;;31.81;24.11;95774.13;2069416;28;20517;-67
2022/08/14 12:10:00;;;;;;;2.73;1.63;;;;;;;31.56;24.07;95777.63;2070381;28;20960;-68
2022/08/14 12:11:22;;;;;;;3.00;1.50;;;;;;;32.39;23.24;95769.28;2069485;28;20443;-69
2022/08/14 12:12:26;;;;;;;3.43;1.70;;;;;;;32.85;23.01;95767.06;2069492;28;20427;-69
2022/08/14 12:13:36;;;;;;;1.80;1.20;;;;;;;32.15;24.07;95765.63;2068244;28;20524;-68
2022/08/14 12:14:52;;;;;;;2.40;2.00;;;;;;;32.16;24.72;95776.19;2069744;28;20423;-68
2022/08/14 12:16:03;;;;;;;3.17;1.80;;;;;;;31.77;25.10;95769.38;2071066;28;20430;-67
2022/08/14 12:17:12;;;;;;;3.20;1.73;;;;;;;32.96;23.88;95765.41;2070120;28;20450;-68
2022/08/14 12:18:14;;;;;;;2.40;1.70;;;;;;;33.96;23.67;95774.56;2070493;28;20427;-68
2022/08/14 12:19:20;;;;;;;2.87;1.73;;;;;;;32.71;24.30;95769.91;2070228;28;20997;-69
2022/08/14 12:20:32;;;;;;;5.67;1.80;;;;;;;32.79;24.19;95767.97;2069942;28;20423;-70
2022/08/14 12:21:34;;;;;;;3.00;1.70;;;;;;;33.33;23.52;95758.00;2070007;28;20439;-69
2022/08/14 12:22:37;;;;;;;4.10;1.77;;;;;;;32.01;24.53;95768.50;2070593;28;20446;-69
2022/08/14 12:23:45;;;;;;;2.40;1.60;;;;;;;31.58;24.89;95770.16;2070243;28;20506;-69
2022/08/14 12:24:50;;;;;;;2.20;1.60;;;;;;;32.56;24.47;95754.09;2069452;28;20432;-69
2022/08/14 12:26:03;;;;;;;3.57;1.77;;;;;;;34.09;23.14;95759.94;2068479;28;20477;-69
2022/08/14 12:27:36;;;;;;;4.67;1.70;;;;;;;34.42;22.46;95757.63;2070579;28;20455;-68
2022/08/14 12:29:23;;;;;;;2.03;1.40;;;;;;;33.14;23.59;95757.22;2070553;28;20462;-69
2022/08/14 12:30:31;;;;;;;3.70;1.70;;;;;;;33.11;23.07;95754.97;2059001;28;20919;-68
2022/08/14 12:31:41;;;;;;;2.03;1.60;;;;;;;33.18;23.08;95761.09;2070483;28;20455;-69
2022/08/14 12:32:47;;;;;;;4.30;1.80;;;;;;;32.70;23.84;95756.63;2068061;28;20885;-69
2022/08/14 12:34:00;;;;;;;2.50;1.40;;;;;;;33.94;21.70;95752.34;2071015;28;20419;-68
2022/08/14 12:35:03;;;;;;;3.70;1.80;;;;;;;34.59;21.34;95747.66;2070960;28;20432;-68
2022/08/14 12:36:19;;;;;;;3.93;1.73;;;;;;;35.08;21.26;95758.00;2070362;28;20447;-67
2022/08/14 12:37:29;;;;;;;4.00;1.70;;;;;;;33.47;23.09;95752.31;2071194;28;20910;-68
2022/08/14 12:38:42;;;;;;;5.40;1.87;;;;;;;33.11;22.15;95749.56;2070736;28;20423;-68
2022/08/14 12:39:45;;;;;;;3.23;1.73;;;;;;;33.12;21.96;95758.53;2063995;28;20807;-69
2022/08/14 12:40:52;;;;;;;2.27;1.50;;;;;;;33.36;21.66;95743.97;2063163;28;20440;-68
2022/08/14 12:42:05;;;;;;;2.37;1.70;;;;;;;33.30;21.84;95741.41;2064775;28;20526;-69
2022/08/14 12:43:07;;;;;;;4.50;1.70;;;;;;;32.57;23.09;95746.84;2056942;28;20951;-69
2022/08/14 12:44:14;;;;;;;2.97;1.77;;;;;;;32.52;22.67;95744.00;2057678;28;20441;-69
2022/08/14 12:45:30;;;;;;;3.30;1.60;;;;;;;33.53;21.87;95748.69;2065437;28;20470;-69
2022/08/14 12:46:35;;;;;;;2.00;1.40;;;;;;;33.08;21.67;95724.88;2064150;28;20448;-69
2022/08/14 12:47:37;;;;;;;2.60;1.43;;;;;;;33.09;22.11;95734.63;2065169;28;20435;-68
2022/08/14 12:48:45;;;;;;;10.50;1.60;;;;;;;32.52;22.76;95731.31;2065194;28;20992;-68
2022/08/14 12:49:53;;;;;;;3.20;1.90;;;;;;;32.97;22.56;95726.53;2064977;28;20809;-70
2022/08/14 12:50:58;;;;;;;2.07;1.30;;;;;;;33.06;22.35;95727.81;2064023;28;20436;-69
2022/08/14 12:52:01;;;;;;;2.00;1.20;;;;;;;32.01;23.13;95722.63;2062917;28;20471;-69
2022/08/14 12:53:03;;;;;;;3.93;1.40;;;;;;;31.80;24.07;95729.28;2065375;28;20451;-69
2022/08/14 12:54:17;;;;;;;4.40;1.83;;;;;;;32.97;23.18;95716.53;2063748;28;20487;-70
2022/08/14 12:55:31;;;;;;;3.93;1.70;;;;;;;32.84;23.42;95724.84;2064201;28;20526;-67
2022/08/14 12:57:10;;;;;;;2.53;1.80;;;;;;;33.50;23.18;95716.69;2064306;28;20494;-67
2022/08/14 12:58:19;;;;;;;2.37;1.63;;;;;;;33.78;22.68;95707.84;2064315;28;21006;-68
2022/08/14 12:59:43;;;;;;;3.10;1.60;;;;;;;33.02;23.36;95711.25;2065108;28;20434;-68
2022/08/14 13:00:49;;;;;;;2.13;1.67;;;;;;;32.76;23.70;95722.47;2065179;28;20439;-67
2022/08/14 13:02:23;;;;;;;9.00;6.03;;;;;;;33.43;22.80;95716.00;2063652;28;20987;-68
2022/08/14 13:03:28;;;;;;;7.30;2.20;;;;;;;33.92;22.51;95711.13;2063240;28;20486;-68
2022/08/14 13:04:30;;;;;;;2.80;1.47;;;;;;;33.91;21.73;95709.47;2063678;28;20436;-68
2022/08/14 13:05:36;;;;;;;3.27;2.17;;;;;;;33.08;22.51;95716.75;2063568;28;20435;-67
2022/08/14 13:06:46;;;;;;;3.17;1.40;;;;;;;32.92;22.10;95710.19;2064461;28;20470;-66
2022/08/14 13:07:52;;;;;;;3.53;1.20;;;;;;;33.47;20.85;95714.44;2064807;28;20828;-70
2022/08/14 13:08:53;;;;;;;5.00;1.20;;;;;;;34.03;20.89;95701.34;2064358;28;20425;-66
2022/08/14 13:10:01;;;;;;;3.53;1.80;;;;;;;34.52;20.19;95698.22;2063981;28;20428;-67
2022/08/14 13:11:25;;;;;;;2.63;1.20;;;;;;;34.65;20.00;95703.34;2064316;28;20424;-68
2022/08/14 13:12:28;;;;;;;2.20;1.40;;;;;;;34.54;20.47;95698.81;2063186;28;20985;-67
2022/08/14 13:13:43;;;;;;;1.90;1.10;;;;;;;35.34;19.90;95698.75;2064291;28;20433;-67
2022/08/14 13:14:47;;;;;;;2.07;1.30;;;;;;;34.86;20.12;95695.56;2065108;28;20432;-67
2022/08/14 13:15:52;;;;;;;7.97;1.60;;;;;;;33.99;20.05;95692.88;2063275;28;20767;-68
2022/08/14 13:17:00;;;;;;;2.20;1.30;;;;;;;34.05;20.43;95693.78;2064494;28;20514;-68
2022/08/14 13:18:05;;;;;;;2.57;1.27;;;;;;;32.78;20.92;95702.28;2064465;28;20886;-68
2022/08/14 13:19:15;;;;;;;2.60;1.27;;;;;;;31.70;22.28;95707.41;2061829;28;20591;-67
2022/08/14 13:20:23;;;;;;;5.83;2.50;;;;;;;30.99;22.74;95683.34;2064921;28;20553;-67
2022/08/14 13:21:28;;;;;;;2.40;1.90;;;;;;;31.91;22.32;95692.66;2064488;28;21608;-67
2022/08/14 13:22:51;;;;;;;7.43;1.50;;;;;;;32.14;21.92;95686.53;2063957;28;20438;-67
2022/08/14 13:23:54;;;;;;;2.90;1.77;;;;;;;31.14;22.50;95696.53;2064382;28;20479;-67
2022/08/14 13:24:58;;;;;;;1.87;1.57;;;;;;;32.35;21.08;95682.53;2064184;28;20421;-67
2022/08/14 13:26:00;;;;;;;2.70;1.57;;;;;;;32.84;20.54;95695.13;2065157;28;20946;-68
2022/08/14 13:27:04;;;;;;;3.23;1.53;;;;;;;32.65;20.32;95691.66;2064147;28;20463;-67
2022/08/14 13:28:11;;;;;;;4.43;1.67;;;;;;;33.45;19.78;95687.66;2062384;28;20528;-67
2022/08/14 13:29:37;;;;;;;1.97;1.30;;;;;;;34.29;19.48;95694.50;2064612;28;20459;-67
2022/08/14 13:30:44;;;;;;;2.27;1.37;;;;;;;34.08;20.06;95692.47;2064723;28;20428;-68
2022/08/14 13:31:50;;;;;;;3.00;1.50;;;;;;;34.46;19.84;95691.06;2063513;28;20475;-68
2022/08/14 13:32:56;;;;;;;5.33;1.77;;;;;;;34.55;19.33;95692.31;2063755;28;20424;-67
2022/08/14 13:33:59;;;;;;;1.53;1.23;;;;;;;34.52;19.67;95690.09;2064961;28;21010;-68
2022/08/14 13:35:01;;;;;;;7.90;1.20;;;;;;;34.26;19.93;95683.34;2064667;28;20752;-67
2022/08/14 13:36:09;;;;;;;1.87;1.23;;;;;;;34.59;19.94;95679.09;2063017;28;20432;-67
2022/08/14 13:37:31;;;;;;;3.50;1.33;;;;;;;34.72;19.35;95678.78;2062496;28;20456;-67
2022/08/14 13:38:33;;;;;;;1.77;1.37;;;;;;;34.87;19.42;95678.25;2063036;28;20436;-64
2022/08/14 13:39:34;;;;;;;2.20;1.47;;;;;;;35.32;19.21;95671.06;2062855;28;20436;-64
2022/08/14 13:40:39;;;;;;;1.87;1.43;;;;;;;35.41;19.34;95676.91;2063951;28;20524;-65
2022/08/14 13:41:43;;;;;;;1.97;1.37;;;;;;;35.12;18.79;95666.97;2063942;28;20551;-65
2022/08/14 13:42:49;;;;;;;3.40;1.60;;;;;;;35.15;18.97;95671.91;2063538;28;20982;-65
2022/08/14 13:43:55;;;;;;;2.80;1.20;;;;;;;35.16;19.17;95661.88;2064699;28;20474;-65
2022/08/14 13:45:02;;;;;;;4.20;1.53;;;;;;;34.95;19.22;95660.75;2061772;28;20819;-64
2022/08/14 13:46:04;;;;;;;3.00;1.47;;;;;;;34.17;20.41;95666.69;2063175;28;20486;-65
2022/08/14 13:47:06;;;;;;;1.93;1.40;;;;;;;34.13;20.59;95670.91;2064194;28;20797;-65
2022/08/14 13:48:09;;;;;;;2.00;1.63;;;;;;;34.56;19.83;95657.91;2064591;28;20439;-65
2022/08/14 13:49:32;;;;;;;2.50;1.30;;;;;;;35.02;19.79;95660.56;2063997;28;20495;-65
2022/08/14 13:50:34;;;;;;;1.60;1.40;;;;;;;34.98;20.12;95671.91;2063098;28;20444;-66
2022/08/14 13:51:40;;;;;;;2.43;1.20;;;;;;;34.05;19.45;95660.47;2063589;28;20460;-65
2022/08/14 13:52:52;;;;;;;2.40;1.10;;;;;;;33.39;20.01;95663.44;2062969;28;20491;-65
2022/08/14 13:53:56;;;;;;;4.13;1.50;;;;;;;32.55;20.92;95666.00;2064751;28;20515;-64
2022/08/14 13:55:14;;;;;;;6.20;1.47;;;;;;;33.25;20.70;95647.41;2064777;28;20443;-64
2022/08/14 13:56:15;;;;;;;5.03;3.63;;;;;;;34.41;19.66;95653.03;2064252;28;20443;-65
2022/08/14 13:57:40;;;;;;;2.93;1.70;;;;;;;34.07;20.21;95656.47;2063747;28;20432;-65
2022/08/14 13:59:03;;;;;;;1.90;1.40;;;;;;;33.96;20.32;95658.16;2063096;28;20986;-64
2022/08/14 14:00:12;;;;;;;2.23;1.60;;;;;;;32.03;21.77;95642.22;2064780;28;20420;-64
2022/08/14 14:01:19;;;;;;;8.83;1.63;;;;;;;32.52;21.17;95652.16;2064257;28;20852;-65
2022/08/14 14:02:22;;;;;;;2.70;1.37;;;;;;;33.53;20.34;95652.13;2062721;28;20524;-65
2022/08/14 14:03:36;;;;;;;1.43;1.20;;;;;;;34.47;19.40;95647.44;2064454;28;20444;-65
2022/08/14 14:04:43;;;;;;;2.73;1.63;;;;;;;35.04;19.25;95636.75;2064063;28;20908;-65
2022/08/14 14:05:52;;;;;;;2.03;1.43;;;;;;;35.26;18.75;95639.50;2063190;28;20482;-64
2022/08/14 14:06:59;;;;;;;1.53;1.10;;;;;;;35.59;19.05;95629.66;2063440;28;20463;-64
2022/08/14 14:08:05;;;;;;;2.50;1.27;;;;;;;35.42;18.86;95640.56;2063874;28;20436;-64
2022/08/14 14:09:09;;;;;;;3.13;1.60;;;;;;;35.86;18.76;95629.75;2063040;28;20443;-65
2022/08/14 14:10:12;;;;;;;3.10;1.37;;;;;;;36.17;18.38;95629.25;2063593;28;20463;-64
2022/08/14 14:11:19;;;;;;;1.80;1.33;;;;;;;35.49;18.56;95624.94;2063282;28;20427;-64
2022/08/14 14:12:22;;;;;;;2.63;1.50;;;;;;;35.02;19.25;95628.88;2064250;28;20432;-64
2022/08/14 14:13:43;;;;;;;1.63;1.00;;;;;;;33.78;19.65;95636.66;2062926;28;20531;-65
2022/08/14 14:14:46;;;;;;;2.83;1.40;;;;;;;34.49;19.30;95625.56;2063762;28;20439;-65
2022/08/14 14:15:53;;;;;;;4.43;1.20;;;;;;;34.93;19.17;95623.03;2064564;28;20436;-65
2022/08/14 14:16:59;;;;;;;3.20;1.33;;;;;;;35.19;18.76;95631.53;2064042;28;20464;-65
2022/08/14 14:18:01;;;;;;;1.40;1.00;;;;;;;35.30;19.09;95622.47;2064616;28;20424;-65
2022/08/14 14:19:03;;;;;;;1.70;1.10;;;;;;;34.87;19.24;95620.47;2064486;28;20431;-65
2022/08/14 14:20:13;;;;;;;2.93;1.13;;;;;;;33.90;19.42;95621.19;2060613;28;20436;-65
2022/08/14 14:21:35;;;;;;;2.40;1.30;;;;;;;33.76;19.70;95617.94;2061195;28;20487;-65
2022/08/14 14:22:45;;;;;;;1.63;1.20;;;;;;;33.15;20.53;95614.75;2063666;28;20428;-65
2022/08/14 14:24:04;;;;;;;3.60;1.30;;;;;;;32.07;21.21;95610.19;2063261;28;20463;-66